createdAt,value
2023-03-13T14:58:11.357Z,21.70
2023-03-13T15:00:41.348Z,21.50
2023-03-13T15:03:17.010Z,20.90
2023-03-13T15:05:44.693Z,20.20
2023-03-13T15:10:47.650Z,23.30
2023-03-13T15:13:15.356Z,23.90
2023-03-13T15:15:42.089Z,24.30
2023-03-13T15:18:17.426Z,24.40
2023-03-13T15:20:44.087Z,24.40
2023-03-13T15:23:14.157Z,23.90
2023-03-13T15:25:41.109Z,21.90
2023-03-13T15:28:18.174Z,22.80
2023-03-13T15:30:46.282Z,20.80
2023-03-13T15:33:16.615Z,20.90
2023-03-13T15:35:43.769Z,19.40
2023-03-13T15:38:24.280Z,19.90
2023-03-13T15:40:50.957Z,20.70
2023-03-13T15:43:26.857Z,20.20
2023-03-13T15:46:34.650Z,22.00
2023-03-13T15:49:01.841Z,22.80
2023-03-13T15:53:55.589Z,23.60
2023-03-13T15:56:25.462Z,23.20
2023-03-13T15:58:52.243Z,23.30
2023-03-13T16:01:19.248Z,23.10
2023-03-13T16:03:46.330Z,22.90
2023-03-13T16:06:20.722Z,22.50
2023-03-13T16:08:47.790Z,23.00
2023-03-13T16:11:15.242Z,23.00
2023-03-13T16:13:42.295Z,23.40
2023-03-13T16:16:17.115Z,21.90
2023-03-13T16:18:43.789Z,21.20
2023-03-13T16:21:13.215Z,20.70
2023-03-13T16:23:39.882Z,22.50
2023-03-13T16:26:12.565Z,23.60
2023-03-13T16:28:39.229Z,22.70
2023-03-13T16:31:06.014Z,21.20
2023-03-13T16:37:01.640Z,19.50
2023-03-13T16:39:28.577Z,17.10
2023-03-13T16:51:58.559Z,16.90
2023-03-13T16:56:52.330Z,16.60
2023-03-13T17:06:44.822Z,16.10
2023-03-13T17:53:22.791Z,15.20
2023-03-13T17:58:16.699Z,15.00
2023-03-13T18:57:23.009Z,13.60
2023-03-13T18:59:49.637Z,13.60
2023-03-13T19:20:30.486Z,12.10
2023-03-13T19:23:00.499Z,12.30
2023-03-13T19:25:27.290Z,11.40
2023-03-13T19:27:53.935Z,11.00
2023-03-13T19:35:18.690Z,11.90
2023-03-13T19:37:45.584Z,11.40
2023-03-13T19:40:17.351Z,11.20
2023-03-13T19:42:43.946Z,11.20
2023-03-13T22:07:36.300Z,10.10
2023-03-13T22:10:03.045Z,9.30
2023-03-13T22:12:29.721Z,10.70
2023-03-13T22:14:57.819Z,10.90
2023-03-13T22:17:24.652Z,10.50
2023-03-13T22:19:51.440Z,9.20
2023-03-13T22:22:20.014Z,10.00
2023-03-13T22:24:46.758Z,10.00
2023-03-13T22:27:14.058Z,9.90
2023-03-13T22:29:43.768Z,10.80
